Llandinam, United Kingdom
Current Conditions -  °F | °C
As of 6:50 PM on Monday 20 Oct 2014 (Local Time) from EGOS Reporting Station
Broken Clouds Broken Clouds  
Wind Chill: 55°   Ceiling: 2800
Heat Index: 55°   Visibility: 6mi
Dew Point: 50°   Wind: 12mph
Humidity: 82%   Direction: 210°SSW
Pressure: 29.85"   Gusts: NA
Location:  52.49°N, 3.43°W
Report Text: EGOS 201750Z 21010KT 9999 FEW020 BKN028 BKN050 13/10 Q1011 BLU NOSIG
Loading
Personal Weather Stations






























Interactive Weather Map
Tropical Storm Tracking
New forecast layout! Learn more

10-Day Weather Forecast

Advertisements
Track Severe Weather on mobile